Time;durP1;ratioP1;P1;durP2;ratioP2;P2;SDS_P1;SDS_P2;PMS_P1;PMS_P2;Temp;Humidity;BMP_temperature;BMP_pressure;BME280_temperature;BME280_humidity;BME280_pressure;Samples;Min_cycle;Max_cycle;Signal;HPM_P1;HPM_P2
2022/03/04 00:02:02;;;;;;;;;;;;;;;;;;5094241;28;20276;-68
2022/03/04 00:04:28;;;;;;;;;;;;;;;;;;5093750;28;19905;-69
2022/03/04 00:06:54;;;;;;;;;;;;;;;;;;5093994;28;19908;-69
2022/03/04 00:09:20;;;;;;;;;;;;;;;;;;5075835;28;20360;-66
2022/03/04 00:11:46;;;;;;;;;;;;;;;;;;5093813;28;19949;-68
2022/03/04 00:14:12;;;;;;;;;;;;;;;;;;5094171;28;19907;-68
2022/03/04 00:16:38;;;;;;;;;;;;;;;;;;5093941;28;19911;-68
2022/03/04 00:19:09;;;;;;;;;;;;;;;;;;5093458;28;19904;-68
2022/03/04 00:21:35;;;;;;;;;;;;;;;;;;5093554;28;19922;-68
2022/03/04 00:24:01;;;;;;;;;;;;;;;;;;5093770;28;19904;-68
2022/03/04 00:26:27;;;;;;;;;;;;;;;;;;5075313;28;20122;-68
2022/03/04 00:28:53;;;;;;;;;;;;;;;;;;5093764;28;19904;-68
2022/03/04 00:31:19;;;;;;;;;;;;;;;;;;5093709;28;19927;-68
2022/03/04 00:33:45;;;;;;;;;;;;;;;;;;5093447;28;19904;-68
2022/03/04 00:36:11;;;;;;;;;;;;;;;;;;5093741;28;19966;-68
2022/03/04 00:38:37;;;;;;;;;;;;;;;;;;5093905;28;19911;-68
2022/03/04 00:41:03;;;;;;;;;;;;;;;;;;5093203;28;20399;-68
2022/03/04 00:43:29;;;;;;;;;;;;;;;;;;5077920;28;20364;-68
2022/03/04 00:45:55;;;;;;;;;;;;;;;;;;5079179;28;19910;-68
2022/03/04 00:48:21;;;;;;;;;;;;;;;;;;5097649;28;19926;-68
2022/03/04 00:50:47;;;;;;;;;;;;;;;;;;5097654;28;19911;-68
2022/03/04 00:53:13;;;;;;;;;;;;;;;;;;5097260;28;19908;-68
2022/03/04 00:55:39;;;;;;;;;;;;;;;;;;5079414;28;19911;-68
2022/03/04 00:58:06;;;;;;;;;;;;;;;;;;5097528;28;20362;-68
2022/03/04 01:00:32;;;;;;;;;;;;;;;;;;5078699;28;19904;-68
2022/03/04 01:02:58;;;;;;;;;;;;;;;;;;5097446;28;19980;-68
2022/03/04 01:05:24;;;;;;;;;;;;;;;;;;5079233;28;19911;-68
2022/03/04 01:07:50;;;;;;;;;;;;;;;;;;5078770;28;19904;-68
2022/03/04 01:10:16;;;;;;;;;;;;;;;;;;5097240;28;20290;-68
2022/03/04 01:12:42;;;;;;;;;;;;;;;;;;5097461;28;19908;-68
2022/03/04 01:15:08;;;;;;;;;;;;;;;;;;5096994;28;20253;-68
2022/03/04 01:17:34;;;;;;;;;;;;;;;;;;5097327;28;19935;-68
2022/03/04 01:20:00;;;;;;;;;;;;;;;;;;5097070;28;20328;-68
2022/03/04 01:22:26;;;;;;;;;;;;;;;;;;5096412;28;19916;-69
2022/03/04 01:24:53;;;;;;;;;;;;;;;;;;5096984;28;19957;-69
2022/03/04 01:27:19;;;;;;;;;;;;;;;;;;5097196;28;19911;-69
2022/03/04 01:29:45;;;;;;;;;;;;;;;;;;5078257;28;19908;-69
2022/03/04 01:32:11;;;;;;;;;;;;;;;;;;5097134;28;19911;-69
2022/03/04 01:34:37;;;;;;;;;;;;;;;;;;5078595;28;19957;-68
2022/03/04 01:37:03;;;;;;;;;;;;;;;;;;5078126;28;19904;-69
2022/03/04 01:39:29;;;;;;;;;;;;;;;;;;5096739;28;19911;-69
2022/03/04 01:41:55;;;;;;;;;;;;;;;;;;5096805;28;19912;-69
2022/03/04 01:44:21;;;;;;;;;;;;;;;;;;5078142;28;19962;-69
2022/03/04 01:46:47;;;;;;;;;;;;;;;;;;5078428;28;19968;-69
2022/03/04 01:49:13;;;;;;;;;;;;;;;;;;5096107;28;19905;-69
2022/03/04 01:51:39;;;;;;;;;;;;;;;;;;5096383;28;19927;-69
2022/03/04 01:54:05;;;;;;;;;;;;;;;;;;5096318;28;19957;-69
2022/03/04 01:56:31;;;;;;;;;;;;;;;;;;5095943;28;20340;-69
2022/03/04 01:58:57;;;;;;;;;;;;;;;;;;5078164;28;19910;-69
2022/03/04 02:01:23;;;;;;;;;;;;;;;;;;5078044;28;19912;-69
2022/03/04 02:03:49;;;;;;;;;;;;;;;;;;5095832;28;20283;-69
2022/03/04 02:06:15;;;;;;;;;;;;;;;;;;5096384;28;20356;-68
2022/03/04 02:08:41;;;;;;;;;;;;;;;;;;5096353;28;19911;-68
2022/03/04 02:11:07;;;;;;;;;;;;;;;;;;5077546;28;20271;-68
2022/03/04 02:13:34;;;;;;;;;;;;;;;;;;5096133;28;19957;-68
2022/03/04 02:16:00;;;;;;;;;;;;;;;;;;5077960;28;20348;-69
2022/03/04 02:18:26;;;;;;;;;;;;;;;;;;5095670;28;19949;-69
2022/03/04 02:20:52;;;;;;;;;;;;;;;;;;5077593;28;20280;-69
2022/03/04 02:23:18;;;;;;;;;;;;;;;;;;5077777;28;19935;-69
2022/03/04 02:25:44;;;;;;;;;;;;;;;;;;5095498;28;20308;-69
2022/03/04 02:28:10;;;;;;;;;;;;;;;;;;5077577;28;19988;-69
2022/03/04 02:30:36;;;;;;;;;;;;;;;;;;5095706;28;19904;-69
2022/03/04 02:33:02;;;;;;;;;;;;;;;;;;5095386;28;19911;-69
2022/03/04 02:35:30;;;;;;;;;;;;;;;;;;5077525;28;19904;-69
2022/03/04 02:37:56;;;;;;;;;;;;;;;;;;5077497;28;19931;-69
2022/03/04 02:40:22;;;;;;;;;;;;;;;;;;5076993;28;20417;-69
2022/03/04 02:42:48;;;;;;;;;;;;;;;;;;5095486;28;19920;-69
2022/03/04 02:45:14;;;;;;;;;;;;;;;;;;5077322;28;20351;-69
2022/03/04 02:47:40;;;;;;;;;;;;;;;;;;5094984;28;19904;-69
2022/03/04 02:50:06;;;;;;;;;;;;;;;;;;5077248;28;19908;-69
2022/03/04 02:52:32;;;;;;;;;;;;;;;;;;5094913;28;20317;-69
2022/03/04 02:54:58;;;;;;;;;;;;;;;;;;5077042;28;19999;-69
2022/03/04 02:57:24;;;;;;;;;;;;;;;;;;5095214;28;19904;-69
2022/03/04 02:59:50;;;;;;;;;;;;;;;;;;5076885;28;19994;-69
2022/03/04 03:02:16;;;;;;;;;;;;;;;;;;5095326;28;19912;-69
2022/03/04 03:04:42;;;;;;;;;;;;;;;;;;5076428;28;20283;-68
2022/03/04 03:07:08;;;;;;;;;;;;;;;;;;5094324;28;20011;-69
2022/03/04 03:09:34;;;;;;;;;;;;;;;;;;5095296;28;19904;-68
2022/03/04 03:12:00;;;;;;;;;;;;;;;;;;5094946;28;19995;-69
2022/03/04 03:14:26;;;;;;;;;;;;;;;;;;5094797;28;19904;-69
2022/03/04 03:16:52;;;;;;;;;;;;;;;;;;5076647;28;19972;-69
2022/03/04 03:19:18;;;;;;;;;;;;;;;;;;5094961;28;19908;-69
2022/03/04 03:21:44;;;;;;;;;;;;;;;;;;5072519;28;19920;-68
2022/03/04 03:24:10;;;;;;;;;;;;;;;;;;5073185;28;19927;-68
2022/03/04 03:26:36;;;;;;;;;;;;;;;;;;5074549;28;19905;-68
2022/03/04 03:29:02;;;;;;;;;;;;;;;;;;5072700;28;19904;-68
2022/03/04 03:31:28;;;;;;;;;;;;;;;;;;5074255;28;19951;-68
2022/03/04 03:33:54;;;;;;;;;;;;;;;;;;5074179;28;19946;-68
2022/03/04 03:36:20;;;;;;;;;;;;;;;;;;5073812;28;19905;-68
2022/03/04 03:38:46;;;;;;;;;;;;;;;;;;5072828;28;20487;-68
2022/03/04 03:41:12;;;;;;;;;;;;;;;;;;5074519;28;20011;-68
2022/03/04 03:43:38;;;;;;;;;;;;;;;;;;5073684;28;19982;-68
2022/03/04 03:46:04;;;;;;;;;;;;;;;;;;5072832;28;19986;-70
2022/03/04 03:48:30;;;;;;;;;;;;;;;;;;5072782;28;19904;-69
2022/03/04 03:50:56;;;;;;;;;;;;;;;;;;5072356;28;19904;-68
2022/03/04 03:53:22;;;;;;;;;;;;;;;;;;5072653;28;19911;-67
2022/03/04 03:55:48;;;;;;;;;;;;;;;;;;5073514;28;19904;-68
2022/03/04 03:58:15;;;;;;;;;;;;;;;;;;5074084;28;20353;-68
2022/03/04 04:00:41;;;;;;;;;;;;;;;;;;5072456;28;19904;-67
2022/03/04 04:03:08;;;;;;;;;;;;;;;;;;5072098;28;19987;-67
2022/03/04 04:05:34;;;;;;;;;;;;;;;;;;5073776;28;19950;-67
2022/03/04 04:07:59;;;;;;;;;;;;;;;;;;5073793;28;19904;-67
2022/03/04 04:10:25;;;;;;;;;;;;;;;;;;5073413;28;20379;-67
2022/03/04 04:12:51;;;;;;;;;;;;;;;;;;5072476;28;19943;-68
2022/03/04 04:15:18;;;;;;;;;;;;;;;;;;5073890;28;20349;-67
2022/03/04 04:17:44;;;;;;;;;;;;;;;;;;5071910;28;20272;-68
2022/03/04 04:20:10;;;;;;;;;;;;;;;;;;5072204;28;19912;-68
2022/03/04 04:22:36;;;;;;;;;;;;;;;;;;5093792;28;19912;-68
2022/03/04 04:25:02;;;;;;;;;;;;;;;;;;5093426;28;19907;-68
2022/03/04 04:27:28;;;;;;;;;;;;;;;;;;5093785;28;19911;-68
2022/03/04 04:29:54;;;;;;;;;;;;;;;;;;5075593;28;20364;-68
2022/03/04 04:32:20;;;;;;;;;;;;;;;;;;5093364;28;19904;-68
2022/03/04 04:34:46;;;;;;;;;;;;;;;;;;5075642;28;19949;-68
2022/03/04 04:37:12;;;;;;;;;;;;;;;;;;5093710;28;19904;-68
2022/03/04 04:39:38;;;;;;;;;;;;;;;;;;5093464;28;19999;-68
2022/03/04 04:42:05;;;;;;;;;;;;;;;;;;5075532;28;19916;-68
2022/03/04 04:44:31;;;;;;;;;;;;;;;;;;5093711;28;19904;-68
2022/03/04 04:46:57;;;;;;;;;;;;;;;;;;5093302;28;20379;-68
2022/03/04 04:49:25;;;;;;;;;;;;;;;;;;5093665;28;19905;-68
2022/03/04 04:51:51;;;;;;;;;;;;;;;;;;5093518;28;19908;-68
2022/03/04 04:54:17;;;;;;;;;;;;;;;;;;5075023;28;19911;-67
2022/03/04 04:56:43;;;;;;;;;;;;;;;;;;5093585;28;20352;-68
2022/03/04 04:59:10;;;;;;;;;;;;;;;;;;5093107;28;19998;-68
2022/03/04 05:01:36;;;;;;;;;;;;;;;;;;5093399;28;19908;-68
2022/03/04 05:04:02;;;;;;;;;;;;;;;;;;5075338;28;19904;-68
2022/03/04 05:06:28;;;;;;;;;;;;;;;;;;5093093;28;19919;-68
2022/03/04 05:08:54;;;;;;;;;;;;;;;;;;5093391;28;19973;-68
2022/03/04 05:11:20;;;;;;;;;;;;;;;;;;5093669;28;19904;-68
2022/03/04 05:13:47;;;;;;;;;;;;;;;;;;5093023;28;20399;-68
2022/03/04 05:16:13;;;;;;;;;;;;;;;;;;5093584;28;20009;-68
2022/03/04 05:18:39;;;;;;;;;;;;;;;;;;5093314;28;19957;-68
2022/03/04 05:21:05;;;;;;;;;;;;;;;;;;5092932;28;19920;-68
2022/03/04 05:26:16;;;;;;;;;;;;;;;;;;5093249;28;19911;-68
2022/03/04 05:28:42;;;;;;;;;;;;;;;;;;5093831;28;19935;-69
2022/03/04 05:31:08;;;;;;;;;;;;;;;;;;5096752;28;19908;-69
2022/03/04 05:33:34;;;;;;;;;;;;;;;;;;5096871;28;19911;-69
2022/03/04 05:36:00;;;;;;;;;;;;;;;;;;5096488;28;19981;-69
2022/03/04 05:38:26;;;;;;;;;;;;;;;;;;5078616;28;19995;-69
2022/03/04 05:40:52;;;;;;;;;;;;;;;;;;5078406;28;19904;-69
2022/03/04 05:43:18;;;;;;;;;;;;;;;;;;5096220;28;19908;-69
2022/03/04 05:45:44;;;;;;;;;;;;;;;;;;5078507;28;20368;-69
2022/03/04 05:48:10;;;;;;;;;;;;;;;;;;5096553;28;19957;-69
2022/03/04 05:50:36;;;;;;;;;;;;;;;;;;5096304;28;20371;-68
2022/03/04 05:53:02;;;;;;;;;;;;;;;;;;5096532;28;19910;-68
2022/03/04 05:55:28;;;;;;;;;;;;;;;;;;5095935;28;19913;-69
2022/03/04 05:57:54;;;;;;;;;;;;;;;;;;5078228;28;20352;-70
2022/03/04 06:00:20;;;;;;;;;;;;;;;;;;5096329;28;20002;-70
2022/03/04 06:02:46;;;;;;;;;;;;;;;;;;5093299;28;19916;-69
2022/03/04 06:05:12;;;;;;;;;;;;;;;;;;5093178;28;19936;-69
2022/03/04 06:07:38;;;;;;;;;;;;;;;;;;5077258;28;19908;-70
2022/03/04 06:10:04;;;;;;;;;;;;;;;;;;5074032;28;19954;-70
2022/03/04 06:12:30;;;;;;;;;;;;;;;;;;5095200;28;19907;-69
2022/03/04 06:14:56;;;;;;;;;;;;;;;;;;5095429;28;19949;-71
2022/03/04 06:17:22;;;;;;;;;;;;;;;;;;5076647;28;19904;-70
2022/03/04 06:19:48;;;;;;;;;;;;;;;;;;5095542;28;19915;-70
2022/03/04 06:22:18;;;;;;;;;;;;;;;;;;5077064;28;19916;-70
2022/03/04 06:24:44;;;;;;;;;;;;;;;;;;5092956;28;20272;-69
2022/03/04 06:27:10;;;;;;;;;;;;;;;;;;5095254;28;19904;-70
2022/03/04 06:29:36;;;;;;;;;;;;;;;;;;5095309;28;19911;-70
2022/03/04 06:32:02;;;;;;;;;;;;;;;;;;5095019;28;19903;-70
2022/03/04 06:34:28;;;;;;;;;;;;;;;;;;5094950;28;19908;-71
2022/03/04 06:36:54;;;;;;;;;;;;;;;;;;5093842;28;20267;-70
2022/03/04 06:39:20;;;;;;;;;;;;;;;;;;5076762;28;19903;-70
2022/03/04 06:41:48;;;;;;;;;;;;;;;;;;5094974;28;20375;-70
2022/03/04 06:44:14;;;;;;;;;;;;;;;;;;5095283;28;19991;-70
2022/03/04 06:46:40;;;;;;;;;;;;;;;;;;5076295;28;19996;-70
2022/03/04 06:49:10;;;;;;;;;;;;;;;;;;5095261;28;19949;-71
2022/03/04 06:51:36;;;;;;;;;;;;;;;;;;5076737;28;20348;-70
2022/03/04 06:54:02;;;;;;;;;;;;;;;;;;5094168;28;20004;-70
2022/03/04 06:56:28;;;;;;;;;;;;;;;;;;5093030;28;19912;-70
2022/03/04 06:58:54;;;;;;;;;;;;;;;;;;5091419;28;19904;-69
2022/03/04 07:01:21;;;;;;;;;;;;;;;;;;5092156;28;20498;-69
2022/03/04 07:03:47;;;;;;;;;;;;;;;;;;5089448;28;20273;-69
2022/03/04 07:06:13;;;;;;;;;;;;;;;;;;5076150;28;19920;-70
2022/03/04 07:08:39;;;;;;;;;;;;;;;;;;5073839;28;19928;-67
2022/03/04 07:11:05;;;;;;;;;;;;;;;;;;5061749;28;19955;-70
2022/03/04 07:13:31;;;;;;;;;;;;;;;;;;5055843;28;19905;-70
2022/03/04 07:15:57;;;;;;;;;;;;;;;;;;5073656;28;20003;-69
2022/03/04 07:18:23;;;;;;;;;;;;;;;;;;5073476;28;20031;-70
2022/03/04 07:20:49;;;;;;;;;;;;;;;;;;5072921;28;20509;-69
2022/03/04 07:23:16;;;;;;;;;;;;;;;;;;5056063;28;19908;-70
2022/03/04 07:25:41;;;;;;;;;;;;;;;;;;5073879;28;19905;-70
2022/03/04 07:28:08;;;;;;;;;;;;;;;;;;5054357;28;19961;-68
2022/03/04 07:30:34;;;;;;;;;;;;;;;;;;5073711;28;19966;-68
2022/03/04 07:33:00;;;;;;;;;;;;;;;;;;5073871;28;19904;-70
2022/03/04 07:35:26;;;;;;;;;;;;;;;;;;5055415;28;19905;-70
2022/03/04 07:37:52;;;;;;;;;;;;;;;;;;5073475;28;20277;-68
2022/03/04 07:40:18;;;;;;;;;;;;;;;;;;5055812;28;19947;-70
2022/03/04 07:42:44;;;;;;;;;;;;;;;;;;5071142;28;20376;-70
2022/03/04 07:45:10;;;;;;;;;;;;;;;;;;5054019;28;19912;-70
2022/03/04 07:47:36;;;;;;;;;;;;;;;;;;5072888;28;19943;-71
2022/03/04 07:50:02;;;;;;;;;;;;;;;;;;5054694;28;19943;-71
2022/03/04 07:52:31;;;;;;;;;;;;;;;;;;5072269;28;20284;-69
2022/03/04 07:54:57;;;;;;;;;;;;;;;;;;5054708;28;19904;-69
2022/03/04 07:57:23;;;;;;;;;;;;;;;;;;5054916;28;20379;-71
2022/03/04 07:59:49;;;;;;;;;;;;;;;;;;5072627;28;19907;-70
2022/03/04 08:02:15;;;;;;;;;;;;;;;;;;5092865;28;19923;-70
2022/03/04 08:04:41;;;;;;;;;;;;;;;;;;5073842;28;19908;-68
2022/03/04 08:07:07;;;;;;;;;;;;;;;;;;5075246;28;20257;-70
2022/03/04 08:09:34;;;;;;;;;;;;;;;;;;5074776;28;19911;-71
2022/03/04 08:12:00;;;;;;;;;;;;;;;;;;5075064;28;19950;-69
2022/03/04 08:14:26;;;;;;;;;;;;;;;;;;5073106;28;19943;-70
2022/03/04 08:16:52;;;;;;;;;;;;;;;;;;5073735;28;19911;-69
2022/03/04 08:19:18;;;;;;;;;;;;;;;;;;5092665;28;19915;-69
2022/03/04 08:21:45;;;;;;;;;;;;;;;;;;5092742;28;19919;-71
2022/03/04 08:24:11;;;;;;;;;;;;;;;;;;5074725;28;19911;-69
2022/03/04 08:26:38;;;;;;;;;;;;;;;;;;5092509;28;19907;-70
2022/03/04 08:29:04;;;;;;;;;;;;;;;;;;5090272;28;19920;-65
2022/03/04 08:31:30;;;;;;;;;;;;;;;;;;5091901;28;19979;-66
2022/03/04 08:33:56;;;;;;;;;;;;;;;;;;5093322;28;19911;-66
2022/03/04 08:36:22;;;;;;;;;;;;;;;;;;5072209;28;20329;-66
2022/03/04 08:38:48;;;;;;;;;;;;;;;;;;5092583;28;19908;-66
2022/03/04 08:41:14;;;;;;;;;;;;;;;;;;5091376;28;20376;-67
2022/03/04 08:43:41;;;;;;;;;;;;;;;;;;5090888;28;19904;-65
2022/03/04 08:46:07;;;;;;;;;;;;;;;;;;5091475;28;19912;-67
2022/03/04 08:48:33;;;;;;;;;;;;;;;;;;5073882;28;19908;-66
2022/03/04 08:50:59;;;;;;;;;;;;;;;;;;5092231;28;19904;-68
2022/03/04 08:53:27;;;;;;;;;;;;;;;;;;5092828;28;20332;-67
2022/03/04 08:55:53;;;;;;;;;;;;;;;;;;5074537;28;19911;-69
2022/03/04 08:58:19;;;;;;;;;;;;;;;;;;5088733;28;19911;-67
2022/03/04 09:00:45;;;;;;;;;;;;;;;;;;5073833;28;19957;-66
2022/03/04 09:03:11;;;;;;;;;;;;;;;;;;5092158;28;20356;-66
2022/03/04 09:05:37;;;;;;;;;;;;;;;;;;5095209;28;20264;-68
2022/03/04 09:08:03;;;;;;;;;;;;;;;;;;5096464;28;19949;-70
2022/03/04 09:10:29;;;;;;;;;;;;;;;;;;5077892;28;19994;-67
2022/03/04 09:12:55;;;;;;;;;;;;;;;;;;5096191;28;19904;-67
2022/03/04 09:15:21;;;;;;;;;;;;;;;;;;5096291;28;20257;-67
2022/03/04 09:17:47;;;;;;;;;;;;;;;;;;5078373;28;19947;-67
2022/03/04 09:20:19;;;;;;;;;;;;;;;;;;5095277;28;20344;-67
2022/03/04 09:22:45;;;;;;;;;;;;;;;;;;5094232;28;19912;-68
2022/03/04 09:25:11;;;;;;;;;;;;;;;;;;5076048;28;19911;-66
2022/03/04 09:27:37;;;;;;;;;;;;;;;;;;5094348;28;19947;-67
2022/03/04 09:30:03;;;;;;;;;;;;;;;;;;5092218;28;19904;-66
2022/03/04 09:32:29;;;;;;;;;;;;;;;;;;5093564;28;19904;-66
2022/03/04 09:34:55;;;;;;;;;;;;;;;;;;5092860;28;20434;-66
2022/03/04 09:37:21;;;;;;;;;;;;;;;;;;5058355;28;19904;-68
2022/03/04 09:39:47;;;;;;;;;;;;;;;;;;5089112;28;20383;-67
2022/03/04 09:42:13;;;;;;;;;;;;;;;;;;5075705;28;19912;-66
2022/03/04 09:44:39;;;;;;;;;;;;;;;;;;5095598;28;20398;-65
2022/03/04 09:47:05;;;;;;;;;;;;;;;;;;5094541;28;19979;-67
2022/03/04 09:49:31;;;;;;;;;;;;;;;;;;5094286;28;19904;-66
2022/03/04 09:51:57;;;;;;;;;;;;;;;;;;5075610;28;19968;-66
2022/03/04 09:54:23;;;;;;;;;;;;;;;;;;5088187;28;19998;-67
2022/03/04 09:57:26;;;;;;;405.77;183.40;;;;;;;;;;5109521;27;20384;-67
2022/03/04 09:59:52;;;;;;;;;;;;;;;;;;5075061;28;20032;-67
2022/03/04 10:02:19;;;;;;;;;;;;;;;;;;5090326;28;20408;-66
2022/03/04 10:04:46;;;;;;;;;;;;;;;;;;5108905;28;19915;-66
2022/03/04 10:07:12;;;;;;;;;;;;;;;;;;5107823;28;19912;-71
2022/03/04 10:09:38;;;;;;;;;;;;;;;;;;5107175;28;19908;-68
2022/03/04 10:12:04;;;;;;;;;;;;;;;;;;5107222;28;19954;-67
2022/03/04 10:14:30;;;;;;;;;;;;;;;;;;5107985;28;19908;-66
2022/03/04 10:16:55;;;;;;;;;;;;;;;;;;5106682;28;19916;-67
2022/03/04 10:19:23;;;;;;;;;;;;;;;;;;5107349;28;19912;-68
2022/03/04 10:21:49;;;;;;;;;;;;;;;;;;5104732;28;20124;-68
2022/03/04 10:24:15;;;;;;;;;;;;;;;;;;5089503;28;19954;-67
2022/03/04 10:26:41;;;;;;;;;;;;;;;;;;5091166;28;19916;-68
2022/03/04 10:29:07;;;;;;;;;;;;;;;;;;5108744;28;20283;-67
2022/03/04 10:31:34;;;;;;;;;;;;;;;;;;5106879;28;20053;-66
2022/03/04 10:36:55;;;;;;;399.42;173.27;;;;;;;;;;5052510;27;2250786;-66
2022/03/04 10:43:07;;;;;;;;;;;;;;;;;;5086654;28;20463;-66
2022/03/04 10:45:34;;;;;;;;;;;;;;;;;;5089694;28;20399;-66
2022/03/04 10:48:00;;;;;;;;;;;;;;;;;;5090421;28;19915;-67
2022/03/04 10:52:09;;;;;;;;;;;;;;;;;;5049744;28;20293;-68
2022/03/04 10:54:35;;;;;;;;;;;;;;;;;;5050058;28;20369;-68
2022/03/04 10:57:01;;;;;;;;;;;;;;;;;;5050417;28;19955;-67
2022/03/04 10:59:27;;;;;;;;;;;;;;;;;;5049647;28;19916;-67
2022/03/04 11:01:56;;;;;;;;;;;;;;;;;;5049647;28;19999;-67
2022/03/04 11:04:23;;;;;;;;;;;;;;;;;;5048770;28;20366;-66
2022/03/04 11:06:49;;;;;;;;;;;;;;;;;;5049102;28;20320;-66
2022/03/04 11:09:15;;;;;;;;;;;;;;;;;;5047568;28;19909;-67
2022/03/04 11:13:38;;;;;;;;;;;;;;;;;;5088105;27;19939;-66
2022/03/04 11:17:38;;;;;;;;;;;;;;;;;;5047510;28;20306;-66
2022/03/04 11:20:23;;;;;;;;;;;;;;;;;;5088232;27;19912;-65
2022/03/04 11:22:53;;;;;;;;;;;;;;;;;;5088833;28;19936;-68
2022/03/04 11:26:16;;;;;;;;;;;;;;;;;;5103987;27;20431;-66
2022/03/04 11:28:56;;;;;;;;;;;;;;;;;;5106600;27;20291;-66
2022/03/04 11:39:57;;;;;;;;;;;;;;;;;;5087391;27;19912;-66
2022/03/04 11:42:23;;;;;;;;;;;;;;;;;;5089009;28;19913;-68
2022/03/04 11:44:48;;;;;;;;;;;;;;;;;;5088680;28;20350;-68
2022/03/04 11:47:15;;;;;;;;;;;;;;;;;;5089798;28;19909;-66
2022/03/04 11:49:44;;;;;;;;;;;;;;;;;;5089800;28;19915;-68
2022/03/04 11:52:35;;;;;;;;;;;;;;;;;;5110275;27;20302;-68
2022/03/04 11:55:01;;;;;;;;;;;;;;;;;;5109287;28;19919;-67
2022/03/04 11:57:27;;;;;;;;;;;;;;;;;;5108995;28;19914;-68
2022/03/04 12:02:01;;;;;;;;;;;;;;;;;;5150716;27;19912;-66
2022/03/04 12:04:27;;;;;;;;;;;;;;;;;;5131996;27;19961;-66
2022/03/04 12:06:53;;;;;;;;;;;;;;;;;;5132503;27;19907;-66
2022/03/04 12:13:42;;;;;;;;;;;;;;;;;;5111138;27;20376;-67
2022/03/04 12:16:09;;;;;;;;;;;;;;;;;;5109605;28;19958;-66
2022/03/04 12:18:35;;;;;;;;;;;;;;;;;;5109816;28;19908;-67
2022/03/04 12:21:01;;;;;;;;;;;;;;;;;;5111234;28;19908;-67
2022/03/04 12:23:27;;;;;;;;;;;;;;;;;;5110857;28;19908;-67
2022/03/04 12:25:59;;;;;;;;;;;;;;;;;;5111124;28;19916;-67
2022/03/04 12:29:50;;;;;;;;;;;;;;;;;;5111218;27;19922;-66
2022/03/04 12:33:31;;;;;;;;;;;;;;;;;;5111306;27;20292;-66
2022/03/04 12:38:31;;;;;;;;;;;;;;;;;;5090863;27;19912;-68
2022/03/04 12:40:57;;;;;;;;;;;;;;;;;;5090955;28;20028;-67
2022/03/04 12:43:23;;;;;;;;;;;;;;;;;;5090642;28;19959;-68
2022/03/04 12:45:49;;;;;;;;;;;;;;;;;;5091085;28;19951;-67
2022/03/04 12:53:37;;;;;;;;;;;;;;;;;;5173499;27;19938;-67
2022/03/04 12:56:03;;;;;;;;;;;;;;;;;;5154802;27;19911;-67
2022/03/04 12:58:29;;;;;;;;;;;;;;;;;;5172875;27;20010;-68
2022/03/04 13:02:50;;;;;;;;;;;;;;;;;;5106826;27;19923;-68
2022/03/04 13:05:16;;;;;;;;;;;;;;;;;;5108587;28;19957;-67
2022/03/04 13:08:18;;;;;;;;;;;;;;;;;;5111204;27;19913;-67
2022/03/04 13:10:44;;;;;;;;;;;;;;;;;;5109858;28;20391;-67
2022/03/04 13:13:10;;;;;;;;;;;;;;;;;;5110743;28;20011;-68
2022/03/04 13:17:45;;;;;;;;;;;;;;;;;;5111594;27;19922;-68
2022/03/04 13:20:11;;;;;;;;;;;;;;;;;;5109773;28;20010;-68
2022/03/04 13:22:37;;;;;;;;;;;;;;;;;;5111166;28;19908;-67
2022/03/04 13:25:03;;;;;;;;;;;;;;;;;;5111126;28;19908;-68
2022/03/04 13:27:29;;;;;;;;;;;;;;;;;;5110726;28;19977;-68
2022/03/04 13:30:18;;;;;;;;;;;;;;;;;;5091028;28;19919;-69
2022/03/04 13:39:50;;;;;;;;;;;;;;;;;;5090796;27;19917;-67
2022/03/04 13:45:18;;;;;;;;;;;;;;;;;;5111550;27;19916;-68
2022/03/04 13:47:46;;;;;;;;;;;;;;;;;;5108929;28;20051;-69
2022/03/04 13:50:12;;;;;;;;;;;;;;;;;;5110166;28;20311;-68
2022/03/04 13:52:38;;;;;;;;;;;;;;;;;;5110004;28;19916;-68
2022/03/04 13:55:04;;;;;;;;;;;;;;;;;;5109532;28;19944;-67
2022/03/04 13:58:03;;;;;;;;;;;;;;;;;;5091259;28;19919;-68
2022/03/04 14:00:29;;;;;;;;;;;;;;;;;;5090652;28;20351;-69
2022/03/04 14:02:55;;;;;;;;;;;;;;;;;;5090995;28;20004;-69
2022/03/04 14:05:21;;;;;;;;;;;;;;;;;;5090911;28;19919;-69
2022/03/04 14:07:47;;;;;;;;;;;;;;;;;;5089229;28;20043;-68
2022/03/04 14:11:34;;;;;;;;;;;;;;;;;;5091023;27;19913;-68
2022/03/04 14:14:01;;;;;;;;;;;;;;;;;;5091010;28;20273;-68
2022/03/04 14:16:29;;;;;;;;;;;;;;;;;;5089438;28;19914;-67
2022/03/04 14:19:27;;;;;;;;;;;;;;;;;;5091234;27;19919;-68
2022/03/04 14:24:27;;;;;;;;;;;;;;;;;;5091236;27;19919;-65
2022/03/04 14:28:34;;;;;;;;;;;;;;;;;;5153191;27;19923;-65
2022/03/04 14:31:00;;;;;;;;;;;;;;;;;;5153012;27;19912;-66
2022/03/04 14:35:10;;;;;;;;;;;;;;;;;;5112215;27;19916;-67
2022/03/04 14:42:47;;;;;;;;;;;;;;;;;;5091071;27;19919;-67
2022/03/04 14:46:52;;;;;;;;;;;;;;;;;;5112234;27;19922;-66
2022/03/04 14:52:32;;;;;;;;;;;;;;;;;;5091839;27;19919;-65
2022/03/04 15:00:29;;;;;;;;;;;;;;;;;;5111668;27;19916;-68
2022/03/04 15:02:55;;;;;;;;;;;;;;;;;;5111594;28;20311;-67
2022/03/04 15:07:29;;;;;;;;;;;;;;;;;;5111741;27;19916;-67
2022/03/04 15:09:55;;;;;;;;;;;;;;;;;;5110320;28;20003;-67
2022/03/04 15:12:21;;;;;;;;;;;;;;;;;;5111098;28;19999;-67
2022/03/04 15:19:12;;;;;;;;;;;;;;;;;;5111618;27;19916;-66
2022/03/04 15:21:38;;;;;;;;;;;;;;;;;;5110333;28;20006;-67
2022/03/04 15:24:26;;;;;;;;;;;;;;;;;;5091492;27;20295;-66
2022/03/04 15:26:52;;;;;;;;;;;;;;;;;;5089564;28;19912;-66
2022/03/04 15:29:35;;;;;;;;;;;;;;;;;;5112160;27;19923;-68
2022/03/04 15:32:04;;;;;;;;;;;;;;;;;;5111326;28;20342;-68
2022/03/04 15:34:30;;;;;;;;;;;;;;;;;;5112144;28;20384;-68
2022/03/04 15:36:56;;;;;;;;;;;;;;;;;;5111543;28;20024;-67
2022/03/04 15:39:22;;;;;;;;;;;;;;;;;;5111234;28;19952;-67
2022/03/04 15:41:48;;;;;;;;;;;;;;;;;;5110247;28;19908;-67
2022/03/04 15:44:14;;;;;;;;;;;;;;;;;;5111475;28;19915;-67
2022/03/04 15:46:40;;;;;;;;;;;;;;;;;;5111324;28;19909;-67
2022/03/04 15:49:06;;;;;;;;;;;;;;;;;;5111517;28;19923;-67
2022/03/04 15:51:32;;;;;;;;;;;;;;;;;;5111228;28;20392;-67
2022/03/04 15:53:58;;;;;;;;;;;;;;;;;;5110865;28;19908;-67
2022/03/04 15:56:24;;;;;;;;;;;;;;;;;;5109895;28;20438;-67
2022/03/04 15:58:50;;;;;;;;;;;;;;;;;;5111353;28;19908;-67
2022/03/04 16:01:16;;;;;;;;;;;;;;;;;;5110685;28;19908;-67
2022/03/04 16:03:42;;;;;;;;;;;;;;;;;;5109629;28;19915;-67
2022/03/04 16:06:08;;;;;;;;;;;;;;;;;;5109588;28;19909;-67
2022/03/04 16:08:35;;;;;;;;;;;;;;;;;;5110490;28;19970;-67
2022/03/04 16:11:01;;;;;;;;;;;;;;;;;;5109620;28;19912;-67
2022/03/04 16:13:26;;;;;;;;;;;;;;;;;;5110953;28;20003;-66
2022/03/04 16:15:52;;;;;;;;;;;;;;;;;;5110397;28;20360;-67
2022/03/04 16:18:18;;;;;;;;;;;;;;;;;;5110588;28;19908;-67
2022/03/04 16:20:44;;;;;;;;;;;;;;;;;;5109344;28;20002;-68
2022/03/04 16:23:11;;;;;;;;;;;;;;;;;;5110236;28;19911;-67
2022/03/04 16:25:37;;;;;;;;;;;;;;;;;;5110699;28;19908;-68
2022/03/04 16:28:03;;;;;;;;;;;;;;;;;;5110272;28;20386;-68
2022/03/04 16:30:29;;;;;;;;;;;;;;;;;;5110081;28;19994;-66
2022/03/04 16:32:58;;;;;;;;;;;;;;;;;;5109203;28;19912;-66
2022/03/04 16:35:24;;;;;;;;;;;;;;;;;;5108613;28;20390;-66
2022/03/04 16:37:50;;;;;;;;;;;;;;;;;;5110163;28;20281;-67
2022/03/04 16:40:16;;;;;;;;;;;;;;;;;;5100680;28;19915;-67
2022/03/04 16:42:42;;;;;;;;;;;;;;;;;;5096319;28;19921;-66
2022/03/04 16:45:08;;;;;;;;;;;;;;;;;;5096691;28;19919;-67
2022/03/04 16:47:34;;;;;;;;;;;;;;;;;;5095319;28;20300;-67
2022/03/04 16:50:00;;;;;;;;;;;;;;;;;;5096313;28;19912;-67
2022/03/04 16:52:26;;;;;;;;;;;;;;;;;;5095289;28;19929;-67
2022/03/04 16:54:52;;;;;;;;;;;;;;;;;;5096458;28;19908;-67
2022/03/04 16:57:20;;;;;;;;;;;;;;;;;;5094808;28;19921;-67
2022/03/04 16:59:46;;;;;;;;;;;;;;;;;;5095051;28;20006;-67
2022/03/04 17:02:12;;;;;;;;;;;;;;;;;;5096293;28;19908;-68
2022/03/04 17:04:38;;;;;;;;;;;;;;;;;;5095309;28;19916;-67
2022/03/04 17:07:04;;;;;;;;;;;;;;;;;;5095649;28;19960;-67
2022/03/04 17:09:30;;;;;;;;;;;;;;;;;;5094826;28;19923;-67
2022/03/04 17:11:56;;;;;;;;;;;;;;;;;;5094383;28;19908;-68
2022/03/04 17:14:22;;;;;;;;;;;;;;;;;;5096384;28;19993;-67
2022/03/04 17:16:48;;;;;;;;;;;;;;;;;;5096273;28;20286;-68
2022/03/04 17:19:14;;;;;;;;;;;;;;;;;;5095703;28;19908;-67
2022/03/04 17:21:40;;;;;;;;;;;;;;;;;;5096044;28;19999;-67
2022/03/04 17:24:06;;;;;;;;;;;;;;;;;;5096037;28;20287;-67
2022/03/04 17:26:32;;;;;;;;;;;;;;;;;;5095491;28;19908;-67
2022/03/04 17:28:57;;;;;;;;;;;;;;;;;;5095525;28;19989;-67
2022/03/04 17:31:24;;;;;;;;;;;;;;;;;;5096071;28;19915;-67
2022/03/04 17:33:50;;;;;;;;;;;;;;;;;;5094663;28;19912;-68
2022/03/04 17:36:16;;;;;;;;;;;;;;;;;;5095689;28;19919;-68
2022/03/04 17:38:42;;;;;;;;;;;;;;;;;;5095720;28;20395;-67
2022/03/04 17:41:08;;;;;;;;;;;;;;;;;;5095623;28;19930;-67
2022/03/04 17:43:34;;;;;;;;;;;;;;;;;;5095643;28;20288;-67
2022/03/04 17:46:00;;;;;;;;;;;;;;;;;;5095109;28;19908;-68
2022/03/04 17:48:30;;;;;;;;;;;;;;;;;;5095432;28;19962;-68
2022/03/04 17:50:56;;;;;;;;;;;;;;;;;;5093228;28;19915;-68
2022/03/04 17:53:22;;;;;;;;;;;;;;;;;;5094997;28;19908;-68
2022/03/04 17:55:48;;;;;;;;;;;;;;;;;;5094101;28;19915;-68
2022/03/04 17:58:14;;;;;;;;;;;;;;;;;;5093944;28;20416;-67
2022/03/04 18:00:39;;;;;;;;;;;;;;;;;;5094886;28;19908;-67
2022/03/04 18:03:05;;;;;;;;;;;;;;;;;;5095171;28;19985;-67
2022/03/04 18:05:31;;;;;;;;;;;;;;;;;;5095072;28;20283;-67